createdAt,value
2022-08-25T00:00:18.885Z,41.90
2022-08-25T00:02:56.003Z,42.10
2022-08-25T00:05:29.393Z,42.00
2022-08-25T00:08:02.287Z,42.10
2022-08-25T00:10:30.878Z,42.10
2022-08-25T00:12:59.116Z,42.10
2022-08-25T00:15:27.141Z,42.10
2022-08-25T00:17:55.105Z,42.00
2022-08-25T00:20:23.450Z,42.10
2022-08-25T00:22:51.344Z,42.10
2022-08-25T00:25:20.835Z,42.10
2022-08-25T00:27:48.859Z,42.20
2022-08-25T00:30:17.722Z,42.20
2022-08-25T00:32:50.514Z,42.20
2022-08-25T00:35:26.738Z,42.30
2022-08-25T00:37:54.783Z,42.10
2022-08-25T00:40:25.781Z,42.70
2022-08-25T00:42:54.428Z,42.30
2022-08-25T00:45:23.105Z,42.20
2022-08-25T00:47:51.063Z,42.20
2022-08-25T00:50:19.088Z,42.30
2022-08-25T00:52:50.625Z,42.40
2022-08-25T00:55:22.934Z,42.50
2022-08-25T00:57:55.962Z,42.60
2022-08-25T01:00:27.913Z,42.50
2022-08-25T01:02:57.946Z,42.40
2022-08-25T01:05:28.148Z,42.30
2022-08-25T01:07:58.555Z,43.00
2022-08-25T01:10:28.161Z,42.40
2022-08-25T01:13:06.265Z,42.90
2022-08-25T01:15:38.263Z,42.80
2022-08-25T01:18:06.992Z,42.30
2022-08-25T01:20:35.017Z,42.30
2022-08-25T01:23:05.053Z,42.30
2022-08-25T01:25:46.902Z,42.50
2022-08-25T01:28:15.145Z,42.80
2022-08-25T01:30:43.462Z,42.90
2022-08-25T01:33:12.730Z,42.40
2022-08-25T01:35:41.589Z,42.50
2022-08-25T01:38:10.925Z,42.50
2022-08-25T01:40:40.660Z,42.70
2022-08-25T01:43:18.563Z,42.70
2022-08-25T01:45:48.745Z,42.90
2022-08-25T01:48:17.877Z,42.40
2022-08-25T01:50:45.809Z,42.40
2022-08-25T01:53:22.795Z,42.40
2022-08-25T01:56:01.838Z,42.80
2022-08-25T01:58:33.076Z,42.40
2022-08-25T02:01:03.559Z,42.50
2022-08-25T02:03:31.708Z,42.60
2022-08-25T02:06:01.233Z,42.60
2022-08-25T02:08:34.201Z,42.60
2022-08-25T02:11:02.452Z,42.60
2022-08-25T02:13:31.363Z,42.50
2022-08-25T02:16:02.217Z,42.50
2022-08-25T02:18:30.346Z,42.50
2022-08-25T02:20:58.348Z,42.40
2022-08-25T02:23:26.972Z,42.40
2022-08-25T02:25:57.148Z,42.50
2022-08-25T02:28:25.334Z,42.60
2022-08-25T02:30:58.746Z,42.30
2022-08-25T02:33:30.182Z,42.40
2022-08-25T02:35:59.642Z,42.30
2022-08-25T02:38:28.454Z,42.50
2022-08-25T02:40:58.419Z,42.50
2022-08-25T02:43:26.706Z,42.50
2022-08-25T02:45:55.484Z,42.40
2022-08-25T02:48:24.378Z,42.50
2022-08-25T02:50:53.650Z,42.50
2022-08-25T02:53:22.258Z,42.50
2022-08-25T02:55:50.592Z,42.50
2022-08-25T02:58:19.941Z,42.30
2022-08-25T03:00:48.787Z,42.40
2022-08-25T03:03:17.735Z,42.40
2022-08-25T03:05:45.961Z,42.50
2022-08-25T03:08:14.077Z,42.40
2022-08-25T03:10:42.042Z,42.50
2022-08-25T03:13:09.969Z,42.50
2022-08-25T03:15:39.384Z,42.50
2022-08-25T03:18:08.075Z,42.50
2022-08-25T03:20:36.673Z,42.50
2022-08-25T03:23:05.878Z,42.50
2022-08-25T03:25:51.381Z,42.60
2022-08-25T03:28:19.749Z,42.50
2022-08-25T03:30:56.057Z,42.30
2022-08-25T03:33:24.168Z,42.50
2022-08-25T03:35:52.070Z,42.40
2022-08-25T03:38:20.011Z,42.50
2022-08-25T03:40:47.969Z,42.50
2022-08-25T03:43:16.172Z,42.50
2022-08-25T03:45:45.196Z,42.50
2022-08-25T03:48:15.374Z,42.60
2022-08-25T03:50:50.700Z,42.60
2022-08-25T03:53:20.481Z,42.60
2022-08-25T03:55:48.645Z,42.60
2022-08-25T03:58:16.983Z,42.60
2022-08-25T04:00:45.453Z,42.60
2022-08-25T04:03:14.804Z,42.60
2022-08-25T04:05:42.976Z,42.60
2022-08-25T04:08:10.880Z,42.60
2022-08-25T04:10:38.949Z,42.60
2022-08-25T04:13:07.214Z,42.70
2022-08-25T04:15:35.682Z,42.60
2022-08-25T04:18:03.930Z,42.60
2022-08-25T04:20:33.277Z,42.60
2022-08-25T04:23:01.567Z,42.70
2022-08-25T04:25:29.570Z,42.50
2022-08-25T04:27:57.641Z,42.60
2022-08-25T04:30:25.634Z,42.60
2022-08-25T04:32:53.537Z,42.60
2022-08-25T04:35:22.553Z,42.60
2022-08-25T04:37:51.818Z,42.60
2022-08-25T04:40:20.213Z,42.70
2022-08-25T04:42:56.662Z,42.50
2022-08-25T04:45:24.808Z,42.50
2022-08-25T04:47:54.976Z,42.70
2022-08-25T04:50:23.131Z,42.80
2022-08-25T04:52:52.368Z,42.90
2022-08-25T04:55:22.078Z,43.00
2022-08-25T04:57:49.950Z,42.90
2022-08-25T05:00:19.101Z,43.00
2022-08-25T05:02:47.019Z,43.10
2022-08-25T05:05:14.912Z,43.00
2022-08-25T05:07:42.834Z,43.10
2022-08-25T05:10:12.295Z,43.20
2022-08-25T05:12:40.185Z,43.50
2022-08-25T05:15:23.642Z,43.40
2022-08-25T05:17:55.304Z,43.60
2022-08-25T05:20:24.232Z,43.40
2022-08-25T05:22:52.256Z,43.60
2022-08-25T05:25:21.719Z,43.70
2022-08-25T05:27:49.719Z,44.10
2022-08-25T05:30:17.622Z,44.30
2022-08-25T05:32:45.677Z,44.60
2022-08-25T05:35:13.579Z,44.90
2022-08-25T05:37:41.458Z,45.20
2022-08-25T05:40:10.478Z,45.30
2022-08-25T05:42:40.162Z,45.50
2022-08-25T05:45:09.793Z,45.70
2022-08-25T05:47:42.742Z,45.70
2022-08-25T05:50:11.877Z,45.70
2022-08-25T05:52:39.861Z,45.80
2022-08-25T05:55:08.768Z,45.90
2022-08-25T05:57:37.620Z,46.00
2022-08-25T06:00:09.129Z,46.10
2022-08-25T06:02:44.552Z,46.30
2022-08-25T06:05:14.921Z,46.20
2022-08-25T06:07:43.414Z,46.40
2022-08-25T06:10:13.373Z,46.50
2022-08-25T06:12:44.339Z,46.80
2022-08-25T06:15:15.453Z,47.10
2022-08-25T06:17:43.409Z,47.50
2022-08-25T06:20:14.262Z,47.50
2022-08-25T06:22:42.937Z,47.70
2022-08-25T06:25:13.207Z,47.80
2022-08-25T06:27:41.563Z,47.90
2022-08-25T06:30:11.948Z,48.00
2022-08-25T06:32:42.654Z,48.20
2022-08-25T06:35:12.994Z,48.30
2022-08-25T06:37:42.411Z,48.50
2022-08-25T06:40:12.229Z,48.70
2022-08-25T06:42:40.232Z,49.20
2022-08-25T06:45:09.086Z,49.20
2022-08-25T06:47:37.045Z,49.20
2022-08-25T06:50:07.288Z,49.30
2022-08-25T06:52:35.612Z,49.00
2022-08-25T06:55:03.594Z,49.00
2022-08-25T06:57:34.118Z,48.90
2022-08-25T07:00:02.028Z,48.60
2022-08-25T07:02:29.921Z,48.50
2022-08-25T07:05:04.646Z,48.60
2022-08-25T07:07:43.738Z,49.40
2022-08-25T07:10:12.882Z,51.50
2022-08-25T07:12:41.340Z,55.30
2022-08-25T07:15:19.733Z,55.90
2022-08-25T07:17:48.088Z,54.40
2022-08-25T07:20:16.885Z,52.80
2022-08-25T07:22:49.118Z,52.30
2022-08-25T07:25:17.842Z,54.10
2022-08-25T07:27:46.002Z,57.50
2022-08-25T07:30:14.327Z,60.70
2022-08-25T07:32:43.098Z,62.20
2022-08-25T07:35:18.849Z,62.30
2022-08-25T07:37:50.978Z,61.00
2022-08-25T07:40:21.223Z,59.40
2022-08-25T07:42:50.931Z,58.80
2022-08-25T07:45:20.899Z,58.00
2022-08-25T07:47:51.713Z,57.10
2022-08-25T07:50:20.358Z,56.30
2022-08-25T07:52:55.034Z,55.00
2022-08-25T07:55:29.071Z,54.00
2022-08-25T07:57:59.666Z,53.70
2022-08-25T08:00:30.150Z,53.00
2022-08-25T08:02:58.698Z,52.50
2022-08-25T08:05:27.542Z,52.10
2022-08-25T08:07:57.332Z,51.60
2022-08-25T08:10:54.046Z,50.90
2022-08-25T08:13:18.015Z,55.30
2022-08-25T08:15:47.286Z,54.10
2022-08-25T08:18:15.898Z,54.20
2022-08-25T08:20:45.509Z,49.20
2022-08-25T08:23:15.466Z,48.50
2022-08-25T08:25:44.122Z,48.20
2022-08-25T08:28:12.038Z,48.10
2022-08-25T08:30:53.021Z,47.60
2022-08-25T08:33:23.773Z,47.00
2022-08-25T08:35:57.667Z,46.70
2022-08-25T08:38:29.050Z,51.00
2022-08-25T08:41:25.524Z,50.30
2022-08-25T08:43:58.986Z,51.00
2022-08-25T08:46:32.930Z,50.10
2022-08-25T08:49:05.814Z,44.50
2022-08-25T08:51:43.698Z,44.30
2022-08-25T08:54:20.345Z,44.10
2022-08-25T08:56:51.496Z,44.10
2022-08-25T08:59:29.911Z,43.90
2022-08-25T09:02:01.717Z,43.70
2022-08-25T09:04:36.404Z,43.40
2022-08-25T09:09:36.826Z,42.10
2022-08-25T09:12:14.725Z,42.30
2022-08-25T09:15:12.761Z,42.50
2022-08-25T09:18:06.938Z,42.10
2022-08-25T09:21:03.909Z,43.20
2022-08-25T09:23:44.149Z,43.80
2022-08-25T09:26:25.109Z,41.50
2022-08-25T09:29:02.119Z,41.30
2022-08-25T09:31:38.632Z,40.90
2022-08-25T09:34:08.561Z,40.70
2022-08-25T09:36:37.881Z,40.50
2022-08-25T09:39:06.607Z,48.90
2022-08-25T09:41:51.158Z,54.50
2022-08-25T09:44:22.421Z,49.50
2022-08-25T09:47:02.899Z,49.90
2022-08-25T09:49:38.605Z,50.40
2022-08-25T09:52:35.125Z,53.40
2022-08-25T09:55:28.309Z,54.20
2022-08-25T09:57:58.631Z,53.20
2022-08-25T10:00:29.179Z,51.20
2022-08-25T10:03:11.287Z,52.60
2022-08-25T10:05:49.142Z,52.30
2022-08-25T10:08:32.232Z,49.40
2022-08-25T10:11:02.494Z,45.50
2022-08-25T10:13:38.909Z,44.10
2022-08-25T10:16:24.336Z,49.00
2022-08-25T10:19:24.599Z,52.30
2022-08-25T10:22:06.437Z,43.40
2022-08-25T10:24:35.024Z,37.10
2022-08-25T10:27:12.212Z,36.20
2022-08-25T10:29:58.009Z,35.30
2022-08-25T10:32:33.473Z,37.00
2022-08-25T10:35:09.058Z,34.80
2022-08-25T10:37:48.252Z,34.50
2022-08-25T10:40:24.066Z,34.30
2022-08-25T10:43:07.398Z,33.80
2022-08-25T10:45:44.389Z,33.70
2022-08-25T10:48:33.054Z,33.70
2022-08-25T10:51:07.849Z,33.50
2022-08-25T10:53:49.618Z,33.20
2022-08-25T10:56:21.142Z,33.00
2022-08-25T10:59:26.698Z,33.60
2022-08-25T11:02:17.697Z,33.70
2022-08-25T11:04:54.772Z,34.00
2022-08-25T11:07:27.828Z,34.20
2022-08-25T11:10:01.734Z,34.60
2022-08-25T11:12:34.562Z,34.60
2022-08-25T11:15:08.517Z,34.70
2022-08-25T11:17:44.036Z,34.70
2022-08-25T11:20:26.496Z,34.90
2022-08-25T11:23:09.400Z,34.90
2022-08-25T11:25:44.127Z,35.20
2022-08-25T11:28:17.321Z,35.10
2022-08-25T11:30:46.393Z,35.40
2022-08-25T11:33:19.540Z,35.30
2022-08-25T11:35:53.535Z,35.50
2022-08-25T11:38:34.271Z,35.40
2022-08-25T11:41:10.959Z,35.80
2022-08-25T11:44:02.620Z,35.20
2022-08-25T11:46:45.973Z,35.40
2022-08-25T11:49:33.524Z,35.60
2022-08-25T11:52:03.040Z,35.60
2022-08-25T11:54:38.705Z,35.40
2022-08-25T11:57:18.517Z,36.00
2022-08-25T12:00:12.481Z,35.70
2022-08-25T12:02:43.061Z,36.30
2022-08-25T12:05:28.915Z,36.10
2022-08-25T12:08:19.515Z,36.10
2022-08-25T12:10:59.445Z,36.10
2022-08-25T12:13:42.934Z,36.40
2022-08-25T12:16:49.375Z,36.30
2022-08-25T12:19:31.744Z,35.80
2022-08-25T12:22:36.675Z,36.00
2022-08-25T12:25:11.544Z,36.30
2022-08-25T12:27:44.645Z,36.50
2022-08-25T12:30:20.959Z,36.20
2022-08-25T12:33:08.195Z,36.50
2022-08-25T12:35:41.999Z,36.70
2022-08-25T12:38:15.715Z,36.70
2022-08-25T12:40:59.573Z,36.50
2022-08-25T12:43:33.310Z,36.80
2022-08-25T12:46:34.130Z,36.50
2022-08-25T12:49:03.189Z,36.70
2022-08-25T12:51:55.036Z,36.70
2022-08-25T12:54:47.752Z,37.00
2022-08-25T12:57:40.362Z,36.90
2022-08-25T13:00:18.454Z,37.10
2022-08-25T13:03:21.817Z,36.80
2022-08-25T13:06:08.178Z,36.90
2022-08-25T13:09:08.473Z,36.90
2022-08-25T13:11:43.195Z,37.10
2022-08-25T13:14:19.747Z,36.90
2022-08-25T13:16:55.582Z,36.80
2022-08-25T13:19:24.274Z,37.00
2022-08-25T13:21:54.597Z,36.70
2022-08-25T13:24:26.488Z,36.50
2022-08-25T13:26:57.960Z,36.40
2022-08-25T13:29:29.485Z,36.60
2022-08-25T13:32:09.686Z,36.30
2022-08-25T13:34:42.891Z,36.40
2022-08-25T13:37:33.210Z,36.80
2022-08-25T13:40:17.755Z,36.60
2022-08-25T13:42:55.512Z,36.50
2022-08-25T13:45:27.604Z,36.50
2022-08-25T13:47:56.369Z,36.70
2022-08-25T13:50:34.610Z,36.70
2022-08-25T13:53:06.641Z,37.10
2022-08-25T13:55:51.535Z,37.10
2022-08-25T13:58:24.346Z,37.40
2022-08-25T14:01:22.407Z,37.60
2022-08-25T14:04:01.185Z,38.30
2022-08-25T14:06:29.625Z,37.60
2022-08-25T14:09:14.004Z,37.50
2022-08-25T14:11:44.715Z,37.80
2022-08-25T14:14:30.639Z,37.60
2022-08-25T14:17:16.437Z,37.90
2022-08-25T14:19:50.425Z,38.00
2022-08-25T14:22:18.367Z,37.90
2022-08-25T14:24:46.320Z,38.00
2022-08-25T14:27:14.265Z,38.00
2022-08-25T14:29:43.486Z,37.90
2022-08-25T14:32:12.298Z,38.40
2022-08-25T14:34:41.703Z,38.30
2022-08-25T14:37:15.481Z,38.20
2022-08-25T14:39:44.192Z,38.40
2022-08-25T14:42:12.654Z,38.10
2022-08-25T14:44:40.644Z,38.00
2022-08-25T14:47:10.436Z,38.10
2022-08-25T14:49:45.798Z,38.80
2022-08-25T14:52:22.611Z,38.50
2022-08-25T14:54:50.975Z,38.60
2022-08-25T14:57:20.175Z,38.50
2022-08-25T14:59:49.920Z,38.60
2022-08-25T15:02:20.996Z,38.60
2022-08-25T15:04:55.043Z,38.80
2022-08-25T15:07:41.102Z,38.90
2022-08-25T15:10:13.793Z,39.50
2022-08-25T15:12:47.863Z,39.00
2022-08-25T15:15:16.374Z,39.00
2022-08-25T15:17:49.287Z,38.80
2022-08-25T15:20:17.526Z,38.70
2022-08-25T15:22:48.037Z,38.60
2022-08-25T15:25:16.677Z,38.50
2022-08-25T15:27:45.991Z,38.50
2022-08-25T15:30:15.222Z,38.60
2022-08-25T15:32:43.304Z,38.50
2022-08-25T15:35:15.371Z,38.60
2022-08-25T15:37:43.614Z,39.20
2022-08-25T15:40:12.855Z,38.50
2022-08-25T15:42:42.945Z,38.70
2022-08-25T15:45:14.342Z,38.80
2022-08-25T15:47:42.233Z,38.80
2022-08-25T15:50:15.497Z,38.90
2022-08-25T15:52:47.450Z,39.10
2022-08-25T15:55:16.563Z,38.80
2022-08-25T15:57:44.864Z,38.80
2022-08-25T16:00:16.589Z,38.90
2022-08-25T16:02:46.280Z,38.90
2022-08-25T16:05:16.542Z,38.90
2022-08-25T16:07:45.829Z,38.80
2022-08-25T16:10:14.443Z,38.80
2022-08-25T16:12:42.764Z,38.80
2022-08-25T16:15:12.223Z,38.70
2022-08-25T16:17:44.319Z,38.70
2022-08-25T16:20:13.931Z,38.60
2022-08-25T16:22:44.750Z,38.60
2022-08-25T16:25:13.137Z,38.70
2022-08-25T16:27:41.149Z,38.60
2022-08-25T16:30:14.996Z,38.60
2022-08-25T16:32:46.505Z,38.80
2022-08-25T16:35:14.523Z,38.90
2022-08-25T16:37:44.167Z,39.00
2022-08-25T16:40:14.750Z,39.10
2022-08-25T16:42:42.988Z,39.10
2022-08-25T16:45:11.727Z,39.20
2022-08-25T16:47:39.636Z,39.20
2022-08-25T16:50:10.994Z,39.30
2022-08-25T16:52:58.193Z,39.40
2022-08-25T16:55:39.357Z,39.40
2022-08-25T16:58:13.413Z,39.50
2022-08-25T17:00:44.730Z,39.50
2022-08-25T17:03:12.945Z,39.60
2022-08-25T17:05:43.198Z,39.60
2022-08-25T17:08:29.439Z,40.00
2022-08-25T17:11:09.181Z,39.80
2022-08-25T17:13:38.285Z,40.30
2022-08-25T17:16:07.126Z,39.90
2022-08-25T17:18:35.146Z,40.00
2022-08-25T17:21:07.314Z,40.10
2022-08-25T17:23:36.777Z,40.20
2022-08-25T17:26:07.766Z,40.20
2022-08-25T17:28:41.532Z,40.40
2022-08-25T17:31:10.306Z,40.30
2022-08-25T17:33:38.372Z,40.40
2022-08-25T17:36:07.568Z,40.40
2022-08-25T17:38:36.035Z,40.60
2022-08-25T17:41:07.949Z,40.60
2022-08-25T17:43:37.745Z,40.80
2022-08-25T17:46:06.939Z,40.60
2022-08-25T17:48:36.278Z,40.70
2022-08-25T17:51:06.285Z,40.70
2022-08-25T17:53:35.680Z,40.70
2022-08-25T17:56:07.772Z,40.80
2022-08-25T17:58:36.496Z,40.90
2022-08-25T18:01:06.010Z,40.80
2022-08-25T18:03:35.375Z,40.90
2022-08-25T18:06:05.621Z,41.00
2022-08-25T18:08:35.091Z,40.90
2022-08-25T18:11:05.241Z,41.00
2022-08-25T18:13:33.177Z,41.00
2022-08-25T18:16:01.132Z,41.00
2022-08-25T18:18:31.152Z,41.00
2022-08-25T18:20:59.219Z,41.10
2022-08-25T18:23:28.730Z,41.10
2022-08-25T18:26:00.690Z,41.20
2022-08-25T18:28:30.810Z,41.10
2022-08-25T18:30:59.051Z,41.30
2022-08-25T18:33:27.106Z,41.30
2022-08-25T18:35:58.431Z,41.30
2022-08-25T18:38:44.314Z,41.30
2022-08-25T18:41:13.550Z,41.30
2022-08-25T18:43:43.489Z,41.40
2022-08-25T18:46:12.280Z,41.50
2022-08-25T18:48:40.246Z,41.40
2022-08-25T18:51:10.421Z,41.40
2022-08-25T18:53:50.411Z,41.60
2022-08-25T18:56:19.160Z,41.80
2022-08-25T18:58:48.720Z,41.80
2022-08-25T19:01:17.454Z,42.00
2022-08-25T19:03:46.462Z,42.00
2022-08-25T19:06:14.663Z,42.10
2022-08-25T19:08:43.551Z,42.20
2022-08-25T19:11:11.941Z,42.50
2022-08-25T19:13:40.815Z,42.30
2022-08-25T19:16:17.791Z,42.30
2022-08-25T19:18:52.109Z,42.90
2022-08-25T19:21:23.627Z,42.40
2022-08-25T19:23:52.272Z,42.50
2022-08-25T19:26:20.805Z,42.50
2022-08-25T19:28:49.656Z,42.60
2022-08-25T19:31:19.530Z,42.50
2022-08-25T19:33:49.043Z,42.90
2022-08-25T19:36:18.540Z,42.80
2022-08-25T19:38:49.372Z,43.00
2022-08-25T19:41:20.528Z,43.00
2022-08-25T19:43:56.609Z,43.10
2022-08-25T19:46:33.120Z,43.30
2022-08-25T19:49:07.161Z,43.40
2022-08-25T19:51:35.740Z,43.20
2022-08-25T19:54:03.662Z,43.30
2022-08-25T19:56:32.418Z,43.40
2022-08-25T19:59:01.125Z,43.40
2022-08-25T20:01:30.463Z,43.40
2022-08-25T20:03:59.492Z,43.50
2022-08-25T20:06:27.870Z,43.40
2022-08-25T20:08:59.073Z,43.50
2022-08-25T20:11:29.708Z,43.60
2022-08-25T20:14:00.479Z,44.20
2022-08-25T20:16:32.889Z,43.70
2022-08-25T20:19:01.445Z,43.80
2022-08-25T20:21:32.006Z,43.80
2022-08-25T20:24:18.448Z,44.00
2022-08-25T20:26:47.017Z,44.00
2022-08-25T20:29:15.068Z,43.80
2022-08-25T20:31:44.301Z,44.10
2022-08-25T20:34:12.410Z,44.20
2022-08-25T20:36:49.931Z,44.10
2022-08-25T20:39:20.142Z,44.10
2022-08-25T20:41:48.328Z,44.20
2022-08-25T20:44:16.631Z,44.20
2022-08-25T20:46:47.258Z,44.20
2022-08-25T20:49:15.281Z,44.40
2022-08-25T20:51:43.550Z,44.10
2022-08-25T20:54:15.348Z,44.20
2022-08-25T20:56:43.628Z,44.50
2022-08-25T20:59:11.833Z,44.30
2022-08-25T21:01:41.193Z,44.40
2022-08-25T21:04:14.412Z,44.40
2022-08-25T21:06:43.327Z,44.70
2022-08-25T21:09:16.186Z,44.50
2022-08-25T21:11:45.055Z,44.70
2022-08-25T21:14:13.865Z,44.50
2022-08-25T21:16:46.352Z,44.70
2022-08-25T21:19:26.447Z,44.70
2022-08-25T21:21:59.535Z,44.90
2022-08-25T21:24:29.027Z,44.70
2022-08-25T21:26:59.598Z,44.70
2022-08-25T21:29:29.830Z,44.90
2022-08-25T21:31:58.743Z,44.90
2022-08-25T21:34:29.537Z,44.80
2022-08-25T21:36:59.285Z,45.00
2022-08-25T21:39:31.930Z,44.90
2022-08-25T21:42:01.179Z,44.90
2022-08-25T21:44:29.821Z,45.00
2022-08-25T21:46:57.862Z,45.00
2022-08-25T21:49:27.777Z,45.00
2022-08-25T21:52:00.731Z,45.00
2022-08-25T21:54:30.419Z,45.10
2022-08-25T21:57:00.306Z,45.20
2022-08-25T21:59:31.052Z,45.20
2022-08-25T22:02:00.576Z,45.40
2022-08-25T22:04:30.746Z,45.30
2022-08-25T22:06:59.845Z,45.40
2022-08-25T22:09:28.776Z,45.30
2022-08-25T22:11:57.205Z,45.30
2022-08-25T22:14:27.699Z,45.40
2022-08-25T22:16:56.898Z,45.40
2022-08-25T22:19:25.308Z,45.50
2022-08-25T22:21:56.129Z,45.60
2022-08-25T22:24:28.099Z,45.80
2022-08-25T22:26:56.802Z,45.70
2022-08-25T22:29:25.851Z,45.80
2022-08-25T22:31:58.677Z,45.80
2022-08-25T22:34:31.837Z,46.00
2022-08-25T22:37:01.662Z,45.90
2022-08-25T22:39:30.029Z,46.10
2022-08-25T22:41:58.030Z,46.10
2022-08-25T22:44:26.662Z,46.10
2022-08-25T22:46:54.784Z,46.00
2022-08-25T22:49:22.943Z,46.10
2022-08-25T22:51:51.071Z,46.10
2022-08-25T22:54:23.077Z,46.00
2022-08-25T22:56:53.624Z,46.00
2022-08-25T22:59:22.199Z,45.90
2022-08-25T23:01:52.400Z,45.90
2022-08-25T23:04:20.888Z,46.10
2022-08-25T23:06:48.857Z,46.10
2022-08-25T23:09:17.345Z,46.10
2022-08-25T23:11:46.682Z,46.00
2022-08-25T23:14:14.817Z,46.20
2022-08-25T23:16:44.413Z,45.90
2022-08-25T23:19:13.842Z,46.00
2022-08-25T23:21:59.646Z,46.00
2022-08-25T23:24:30.276Z,46.00
2022-08-25T23:27:02.183Z,46.00
2022-08-25T23:29:32.756Z,46.20
2022-08-25T23:32:00.850Z,46.10
2022-08-25T23:34:28.925Z,46.10
2022-08-25T23:36:57.525Z,46.10
2022-08-25T23:39:25.566Z,46.10
2022-08-25T23:41:54.113Z,46.10
2022-08-25T23:44:24.698Z,46.10
2022-08-25T23:46:53.961Z,46.30
2022-08-25T23:49:23.974Z,46.20
2022-08-25T23:51:55.021Z,46.40
2022-08-25T23:54:23.014Z,46.20
2022-08-25T23:56:59.466Z,46.20
2022-08-25T23:59:29.114Z,46.10
